Holcombville, New York
Current Conditions -  °F | °C
As of 9:53 AM on Friday 24 Oct 2014 (Local Time) from KGFL Reporting Station
Haze Haze  
Wind Chill: 45°   Ceiling: 600
Heat Index: 45°   Visibility: 2.5mi
Dew Point: 43°   Wind: 3mph
Humidity: 93%   Direction: 80°E
Pressure: 29.86"   Gusts: NA
Location:  43.7289°N, 73.9027°W
Report Text: KGFL 241353Z AUTO 08003KT 2 1/2SM BR BKN006 OVC010 07/06 A2986 RMK AO2 RAE24 CIG 003V010 SLP114 P0001 T00720061
Loading
Personal Weather Stations






























Interactive Weather Map New forecast layout! Learn more

10-Day Weather Forecast

Advertisements
Track Severe Weather on mobile